Latest Weather Observations for Albion Park

IDN60801

Issued at 11:03 pm EST Saturday 23 July 2016 (issued every 30 minutes, with the page automatically refreshed every 10 minutes)

About weather observations | Map of weather stations | Latest weather observations for NSW | Other Formats
Station Details ID: 068241 Name: WOLLONGONG AIRPORT Lat: -34.56 Lon: 150.79 Height: 8.0 m
Data from the previous 72 hours. | See also: Recent months at Albion Park
Date/Time
EST
Temp
°C
App
Temp
°C
Dew
Point
°C
Rel
Hum
%
Delta-T
°C
Wind Press
QNH
hPa
Press
MSL
hPa
Rain since
9am
mm
Dir  Spd
km/h
Gust
km/h
Spd
kts
Gust
kts
23/11:00pm 10.0 6.7 0.3 51 3.9 WSW 7 15 4 8 1013.1 1013.1 0.0
23/10:30pm 10.5 5.7 0.0 48 4.2 WSW 15 30 8 16 1013.0 1013.0 0.0
23/10:00pm 10.7 5.9 0.2 48 4.3 WSW 15 24 8 13 1012.5 1012.5 0.0
23/09:30pm 10.5 6.5 0.3 49 4.1 WSW 11 20 6 11 1011.9 1011.9 0.0
23/09:00pm 10.8 5.1 -0.6 45 4.6 WSW 19 28 10 15 1011.5 1011.5 0.0
23/08:30pm 10.5 4.8 -0.6 46 4.4 WSW 19 30 10 16 1011.2 1011.2 0.0
23/08:00pm 11.1 5.2 -0.7 44 4.7 WSW 20 48 11 26 1010.9 1010.9 0.0
23/07:43pm 11.1 3.8 -0.1 46 4.5 W 28 48 15 26 1010.0 1010.0 0.0
23/07:30pm 11.5 5.5 1.2 49 4.3 SW 22 43 12 23 1009.8 1009.8 0.0
23/07:00pm 11.4 5.0 1.1 49 4.3 W 24 35 13 19 1009.1 1009.1 0.0
23/06:30pm 11.5 6.9 1.5 50 4.2 W 15 26 8 14 1008.7 1008.7 0.0
23/06:00pm 11.7 5.8 1.4 49 4.4 W 22 32 12 17 1007.9 1007.9 0.0
23/05:30pm 12.0 5.0 1.9 50 4.3 W 28 43 15 23 1006.9 1006.9 0.0
23/05:01pm 12.7 5.1 3.1 52 4.2 WSW 32 63 17 34 1006.2 1006.2 0.0
23/05:00pm 12.7 5.5 3.1 52 4.3 WSW 30 56 16 30 1006.1 1006.1 0.0
23/04:33pm 13.6 6.7 2.8 48 4.8 W 28 52 15 28 1005.5 1005.5 0.0
23/04:30pm 13.8 7.6 2.4 46 5.0 W 24 52 13 28 1005.3 1005.3 0.0
23/04:00pm 14.0 6.3 2.3 45 5.2 WSW 32 61 17 33 1005.1 1005.1 0.0
23/03:30pm 14.6 7.9 3.7 48 5.0 WSW 28 50 15 27 1004.5 1004.5 0.0
23/03:00pm 15.5 8.3 3.0 43 5.7 W 30 57 16 31 1003.8 1003.8 0.0
23/02:33pm 15.6 8.7 2.7 42 5.8 W 28 46 15 25 1003.2 1003.2 0.0
23/02:30pm 15.9 9.5 3.4 43 5.7 W 26 46 14 25 1003.3 1003.3 0.0
23/02:00pm 15.4 7.1 1.9 40 6.0 W 35 63 19 34 1002.9 1002.9 0.0
23/01:52pm 15.6 9.6 3.4 44 5.6 W 24 46 13 25 1002.9 1002.9 0.0
23/01:45pm 15.7 9.3 3.2 43 5.7 WNW 26 50 14 27 1002.5 1002.5 0.0
23/01:30pm 15.5 5.8 3.0 43 5.7 W 43 72 23 39 1002.2 1002.2 0.0
23/01:00pm 15.8 8.5 4.5 47 5.3 W 32 57 17 31 1001.8 1001.8 0.0
23/12:30pm 15.0 6.3 4.1 48 5.0 W 39 63 21 34 1002.0 1002.0 0.0
23/12:00pm 15.3 6.8 5.0 50 4.9 W 39 63 21 34 1002.4 1002.4 0.0
23/11:30am 15.1 6.0 4.2 48 5.0 W 41 65 22 35 1002.3 1002.3 0.0
23/11:00am 14.8 6.4 3.9 48 5.0 W 37 56 20 30 1002.4 1002.4 0.0
23/10:30am 14.3 4.4 2.9 46 5.1 W 44 78 24 42 1002.2 1002.2 0.0
23/10:03am 14.0 5.1 2.9 47 4.9 W 39 63 21 34 1002.5 1002.5 0.0
23/10:00am 14.0 4.9 3.8 50 4.7 W 41 57 22 31 1002.4 1002.4 0.0
23/09:30am 13.6 4.3 3.1 49 4.7 W 41 65 22 35 1002.3 1002.3 0.0
23/09:00am 13.2 3.3 2.7 49 4.7 W 44 63 24 34 1002.1 1002.1 9.0
23/08:30am 12.6 3.8 3.6 54 4.0 W 39 59 21 32 1002.0 1002.0 9.0
23/08:00am 12.6 2.0 3.0 52 4.3 W 48 72 26 39 1001.3 1001.3 9.0
23/07:30am 12.3 0.9 3.0 53 4.1 W 52 72 28 39 1000.9 1000.9 9.0
23/07:28am 12.6 0.8 3.0 52 4.2 W 54 72 29 39 1000.8 1000.8 9.0
23/07:22am 12.7 1.3 2.8 51 4.4 W 52 72 28 39 1000.5 1000.5 9.0
23/07:01am 12.4 2.8 3.4 54 4.0 W 43 61 23 33 1000.4 1000.4 9.0
23/07:00am 12.3 2.7 3.5 55 3.9 W 43 59 23 32 1000.6 1000.6 9.0
23/06:30am 12.8 2.0 4.0 55 4.0 W 50 69 27 37 1000.2 1000.2 9.0
23/06:00am 14.1 4.9 3.3 48 4.9 W 41 61 22 33 999.0 999.0 9.0
23/05:30am 14.3 4.9 4.6 52 4.5 W 43 70 23 38 998.5 998.5 9.0
23/05:00am 14.0 6.4 5.9 58 3.9 W 35 54 19 29 998.0 998.0 9.0
23/04:30am 14.5 5.4 5.8 56 4.1 W 43 69 23 37 997.8 997.8 9.0
23/04:00am 15.0 4.7 6.6 57 4.1 W 50 70 27 38 997.4 997.4 9.0
23/03:30am 15.8 6.3 6.8 55 4.4 W 46 69 25 37 996.9 996.9 9.0
23/03:00am 16.4 6.1 6.5 52 4.9 W 50 69 27 37 996.1 996.1 9.0
23/02:54am 16.8 6.8 6.3 50 5.1 W 48 80 26 43 996.0 996.0 9.0
23/02:52am 17.2 6.8 6.1 48 5.4 W 50 80 27 43 995.9 995.9 9.0
23/02:30am 17.6 9.6 7.6 52 5.0 W 39 65 21 35 996.0 996.0 9.0
23/02:06am 18.0 11.5 8.3 53 5.0 W 32 56 17 30 995.8 995.8 9.0
23/02:00am 17.6 11.7 9.0 57 4.5 W 30 39 16 21 995.8 995.8 9.0
23/01:30am 17.9 11.7 9.3 57 4.5 W 32 57 17 31 996.1 996.1 9.0
23/01:16am 18.2 12.8 9.5 57 4.6 W 28 50 15 27 996.0 996.0 9.0
23/01:00am 18.0 13.5 9.9 59 4.3 W 24 39 13 21 996.2 996.2 9.0
23/12:30am 19.1 12.1 9.9 55 4.9 W 37 56 20 30 996.3 996.3 9.0
23/12:10am 18.7 13.8 11.3 62 4.0 W 28 56 15 30 996.6 996.6 9.0
23/12:00am 18.4 16.5 13.1 71 3.0 W 15 28 8 15 997.0 997.0 9.0
 
Date/Time
EST
Temp
°C
App
Temp
°C
Dew
Point
°C
Rel
Hum
%
Delta-T
°C
Wind Press
QNH
hPa
Press
MSL
hPa
Rain since
9am
mm
Dir  Spd
km/h
Gust
km/h
Spd
kts
Gust
kts
22/11:30pm 18.2 17.6 14.7 80 2.0 SW 11 30 6 16 997.1 997.1 9.0
22/11:00pm 17.6 18.1 15.6 88 1.2 SW 7 11 4 6 996.7 996.7 9.0
22/10:30pm 17.9 16.9 15.7 87 1.3 W 15 26 8 14 997.2 997.2 8.6
22/10:22pm 17.9 15.5 15.5 86 1.4 W 22 35 12 19 997.3 997.3 8.2
22/10:11pm 18.3 17.0 15.7 85 1.5 W 17 41 9 22 997.6 997.6 7.2
22/10:03pm 17.0 16.6 15.3 90 1.0 WSW 11 15 6 8 997.6 997.6 6.4
22/10:00pm 17.2 16.5 15.4 89 1.1 WSW 13 17 7 9 998.0 998.0 5.8
22/09:30pm 19.3 14.6 14.3 73 2.9 WNW 32 43 17 23 997.2 997.2 4.6
22/09:00pm 19.5 13.3 13.9 70 3.2 NW 39 57 21 31 996.9 996.9 4.6
22/08:38pm 19.0 14.1 14.3 74 2.7 WNW 33 57 18 31 997.6 997.6 4.4
22/08:30pm 18.8 14.2 14.5 76 2.5 W 32 46 17 25 998.1 998.1 4.2
22/08:11pm 18.9 16.3 14.8 77 2.4 WNW 22 35 12 19 998.7 998.7 4.0
22/08:00pm 17.3 15.0 15.6 90 1.0 W 22 43 12 23 999.4 999.4 3.8
22/07:50pm 18.1 15.4 15.5 85 1.5 SW 24 46 13 25 1000.3 1000.3 2.2
22/07:48pm 18.8 16.8 15.5 81 1.9 SSW 20 43 11 23 1000.0 1000.0 1.0
22/07:30pm 21.3 19.6 13.7 62 4.4 WNW 15 24 8 13 998.3 998.3 0.0
22/07:00pm 22.7 20.2 12.3 52 5.9 NW 17 24 9 13 997.5 997.5 0.0
22/06:30pm 22.8 20.1 11.8 50 6.2 NW 17 26 9 14 997.4 997.4 0.0
22/06:00pm 23.5 19.9 11.9 48 6.6 NNW 22 33 12 18 997.2 997.2 0.0
22/05:40pm 23.4 18.4 12.1 49 6.4 NW 30 48 16 26 997.4 997.4 0.0
22/05:30pm 23.7 18.2 12.4 49 6.5 NW 33 46 18 25 997.3 997.3 0.0
22/05:22pm 24.0 19.4 12.3 48 6.7 NW 28 46 15 25 997.1 997.1 0.0
22/05:00pm 23.0 20.1 12.9 53 5.8 NW 20 30 11 16 997.7 997.7 0.0
22/04:30pm 23.4 20.7 13.6 54 5.7 NW 20 32 11 17 998.2 998.2 0.0
22/04:00pm 24.4 19.4 13.3 50 6.5 NW 32 48 17 26 998.1 998.1 0.0
22/03:48pm 24.3 19.0 13.2 50 6.4 NW 33 54 18 29 998.4 998.4 0.0
22/03:30pm 24.9 19.4 13.5 49 6.7 WNW 35 50 19 27 998.7 998.7 0.0
22/03:19pm 24.8 19.9 13.7 50 6.5 WNW 32 50 17 27 999.1 999.1 0.0
22/03:00pm 25.3 20.9 14.1 50 6.7 WNW 30 44 16 24 999.3 999.3 0.0
22/02:48pm 25.2 20.7 13.7 49 6.8 WNW 30 46 16 25 999.2 999.2 0.0
22/02:34pm 25.3 21.2 13.8 49 6.8 NW 28 50 15 27 999.2 999.2 0.0
22/02:30pm 25.3 20.5 14.1 50 6.6 NW 32 50 17 27 999.1 999.1 0.0
22/02:05pm 25.2 21.3 14.3 50 6.5 WNW 28 46 15 25 999.7 999.7 0.0
22/02:00pm 25.2 21.6 15.2 54 6.1 WNW 28 44 15 24 999.9 999.9 0.0
22/01:44pm 25.2 20.7 14.9 52 6.2 WNW 32 52 17 28 1000.2 1000.2 0.0
22/01:30pm 25.4 22.0 14.8 52 6.3 WNW 26 37 14 20 1000.3 1000.3 0.0
22/01:23pm 25.6 21.7 14.4 50 6.7 NW 28 44 15 24 1000.5 1000.5 0.0
22/01:00pm 25.3 23.4 15.3 54 6.1 NNW 19 26 10 14 1000.7 1000.7 0.0
22/12:30pm 23.0 21.8 16.1 65 4.2 NE 17 24 9 13 1001.5 1001.5 0.0
22/12:00pm 20.1 17.8 14.2 69 3.4 NE 19 26 10 14 1002.5 1002.5 0.0
22/11:30am 18.6 16.1 13.5 72 2.9 NE 19 24 10 13 1003.8 1003.8 0.0
22/11:00am 17.3 15.7 12.8 75 2.5 NNE 13 15 7 8 1004.8 1004.8 0.0
22/10:30am 16.9 14.8 12.4 75 2.5 NNE 15 24 8 13 1005.6 1005.6 0.0
22/10:00am 16.7 14.1 12.0 74 2.6 N 17 24 9 13 1006.6 1006.6 0.0
22/09:30am 16.6 13.6 12.0 74 2.5 N 19 26 10 14 1006.9 1006.9 0.0
22/09:00am 16.5 12.9 11.9 74 2.5 N 22 30 12 16 1007.5 1007.5 0.2
22/08:30am 15.8 13.2 12.0 78 2.1 NW 17 24 9 13 1008.2 1008.2 0.2
22/08:00am 15.9 12.1 11.1 73 2.6 NW 22 28 12 15 1008.2 1008.2 0.2
22/07:30am 16.1 15.2 10.6 70 2.9 NNW 6 17 3 9 1008.7 1008.7 0.2
22/07:00am 16.0 13.6 10.1 68 3.1 WSW 13 20 7 11 1008.9 1008.9 0.2
22/06:30am 16.9 15.1 9.6 62 3.8 WSW 9 13 5 7 1008.8 1008.8 0.2
22/06:00am 16.3 15.6 10.2 67 3.2 WSW 4 13 2 7 1008.7 1008.7 0.2
22/05:30am 16.3 14.7 10.2 67 3.2 W 9 20 5 11 1008.8 1008.8 0.2
22/05:00am 14.9 14.4 10.7 76 2.2 SW 4 6 2 3 1009.3 1009.3 0.2
22/04:30am 16.8 14.0 11.5 71 2.9 W 17 28 9 15 1009.5 1009.5 0.2
22/04:25am 15.9 14.4 11.9 77 2.2 WNW 11 24 6 13 1009.4 1009.4 0.2
22/04:00am 10.8 9.9 10.6 99 0.1 SW 6 9 3 5 1009.8 1009.8 0.2
22/03:30am 10.6 10.0 10.3 98 0.2 SW 4 9 2 5 1010.0 1010.0 0.2
22/03:00am 11.2 10.7 10.6 96 0.3 SSW 4 9 2 5 1010.9 1010.9 0.2
22/02:30am 11.7 11.5 10.6 93 0.6 SW 2 7 1 4 1011.5 1011.5 0.2
22/02:00am 13.6 13.2 12.3 92 0.7 ENE 6 9 3 5 1011.7 1011.7 0.2
22/01:30am 13.7 14.0 12.3 91 0.8 ENE 2 9 1 5 1012.0 1012.0 0.0
22/01:00am 13.8 12.7 13.2 96 0.3 ENE 11 15 6 8 1012.3 1012.3 0.0
22/12:30am 13.0 12.5 12.8 99 0.1 SSE 7 9 4 5 1012.7 1012.7 0.0
22/12:00am 13.9 13.8 13.4 97 0.3 E 6 11 3 6 1013.3 1013.3 0.0
 
Date/Time
EST
Temp
°C
App
Temp
°C
Dew
Point
°C
Rel
Hum
%
Delta-T
°C
Wind Press
QNH
hPa
Press
MSL
hPa
Rain since
9am
mm
Dir  Spd
km/h
Gust
km/h
Spd
kts
Gust
kts
21/11:30pm 13.4 13.6 13.1 98 0.2 E 4 7 2 4 1013.6 1013.6 0.0
21/11:00pm 12.8 11.9 12.6 99 0.1 ESE 9 17 5 9 1013.9 1013.9 0.0
21/10:30pm 12.0 9.7 11.8 99 0.1 W 15 20 8 11 1014.3 1014.3 0.0
21/10:26pm 11.6 10.0 11.4 99 0.1 WNW 11 19 6 10 1014.4 1014.4 0.0
21/10:02pm 11.5 11.9 11.3 99 0.1 CALM 0 0 0 0 1014.8 1014.8 0.0
21/10:00pm 11.7 12.2 11.5 99 0.1 CALM 0 0 0 0 1014.8 1014.8 0.0
21/09:30pm 12.3 13.0 12.1 99 0.1 CALM 0 0 0 0 1015.3 1015.3 0.0
21/09:00pm 12.0 11.8 11.8 99 0.1 WSW 4 11 2 6 1015.0 1015.0 0.0
21/08:36pm 11.4 10.6 11.2 99 0.1 WSW 6 7 3 4 1015.3 1015.3 0.0
21/08:30pm 11.5 10.8 11.3 99 0.1 WSW 6 7 3 4 1015.3 1015.3 0.0
21/08:13pm 11.7 12.2 11.5 99 0.1 CALM 0 0 0 0 1015.4 1015.4 0.0
21/08:00pm 12.0 12.6 11.8 99 0.1 CALM 0 0 0 0 1015.5 1015.5 0.0
21/07:30pm 12.3 11.8 12.1 99 0.1 WSW 6 7 3 4 1015.6 1015.6 0.0
21/07:00pm 12.6 13.3 12.3 98 0.2 CALM 0 0 0 0 1015.3 1015.3 0.0
21/06:30pm 12.6 13.2 11.8 95 0.4 CALM 0 0 0 0 1015.2 1015.2 0.0
21/06:00pm 14.2 14.2 13.6 96 0.3 WSW 6 7 3 4 1015.0 1015.0 0.0
21/05:30pm 15.3 15.6 13.5 89 1.0 NNE 4 7 2 4 1015.1 1015.1 0.0
21/05:00pm 16.2 15.9 14.4 89 1.0 NE 9 13 5 7 1015.1 1015.1 0.0
21/04:30pm 16.8 16.5 14.3 85 1.4 NE 9 13 5 7 1015.1 1015.1 0.0
21/04:00pm 18.0 18.0 14.3 79 2.1 NE 7 11 4 6 1014.9 1014.9 0.0
21/03:30pm 18.1 17.9 14.6 80 2.0 NE 9 11 5 6 1015.3 1015.3 0.0
21/03:00pm 18.4 17.9 14.9 80 2.0 NNE 11 13 6 7 1015.5 1015.5 0.0
21/02:30pm 18.3 17.7 14.6 79 2.1 NE 11 13 6 7 1015.7 1015.7 0.0
21/02:13pm 17.7 17.2 15.0 84 1.6 NE 11 15 6 8 1016.0 1016.0 0.0
21/02:00pm 17.8 17.4 15.1 84 1.6 ENE 11 15 6 8 1016.1 1016.1 0.0
21/01:30pm 17.3 17.4 14.4 83 1.7 ENE 7 11 4 6 1016.7 1016.7 0.0
21/01:00pm 17.8 18.7 14.1 79 2.1 S 2 7 1 4 1017.0 1017.0 0.0
21/12:30pm 17.3 18.7 14.4 83 1.7 CALM 0 2 0 1 1017.5 1017.5 0.0
21/12:00pm 17.4 18.8 14.5 83 1.7 CALM 0 0 0 0 1018.0 1018.0 0.0
21/11:30am 17.1 16.6 13.8 81 1.9 SSE 9 13 5 7 1018.7 1018.7 0.0
21/11:00am 16.9 17.3 13.8 82 1.8 SSW 4 7 2 4 1019.2 1019.2 0.0
21/10:56am 16.8 16.6 13.7 82 1.8 S 7 11 4 6 1019.3 1019.3 0.0
21/10:30am 17.6 18.6 14.3 81 1.9 SSW 2 9 1 5 1019.5 1019.5 0.0
21/10:00am 16.7 17.9 13.8 83 1.6 CALM 0 0 0 0 1019.9 1019.9 0.0
21/09:30am 16.2 16.8 13.1 82 1.7 SW 2 7 1 4 1019.8 1019.8 0.0
21/09:00am 15.6 15.5 13.4 87 1.2 SW 6 7 3 4 1019.9 1019.9 7.6
21/08:30am 15.0 15.4 13.7 92 0.7 SW 4 7 2 4 1019.9 1019.9 7.6
21/08:00am 14.8 14.7 13.3 91 0.8 SW 6 9 3 5 1020.0 1020.0 7.6
21/07:30am 14.2 13.5 13.1 93 0.6 WSW 9 11 5 6 1019.7 1019.7 7.6
21/07:00am 14.0 15.0 13.1 94 0.5 CALM 0 6 0 3 1019.9 1019.9 7.6
21/06:30am 14.1 13.9 13.0 93 0.6 SW 6 7 3 4 1019.7 1019.7 7.6
21/06:00am 14.1 14.0 13.3 95 0.4 SW 6 7 3 4 1019.6 1019.6 7.6
21/05:30am 14.1 14.6 12.8 92 0.7 SW 2 6 1 3 1019.5 1019.5 7.6
21/05:18am 14.0 13.8 13.1 94 0.5 SW 6 7 3 4 1019.3 1019.3 7.6
21/05:00am 14.2 15.1 12.9 92 0.7 CALM 0 0 0 0 1019.4 1019.4 7.6
21/04:57am 14.3 15.2 13.0 92 0.7 CALM 0 0 0 0 1019.4 1019.4 7.6
21/04:30am 14.5 14.3 12.9 90 0.9 SW 6 7 3 4 1019.3 1019.3 7.6
21/04:00am 14.9 14.4 12.6 86 1.3 SW 7 9 4 5 1019.4 1019.4 7.6
21/03:30am 14.8 13.9 12.7 87 1.2 SSW 9 15 5 8 1019.6 1019.6 7.6
21/03:00am 14.9 13.2 12.6 86 1.3 SSW 13 17 7 9 1019.9 1019.9 7.6
21/02:30am 14.9 13.6 12.6 86 1.3 SSW 11 17 6 9 1020.1 1020.1 7.6
21/02:00am 14.9 13.2 12.6 86 1.3 S 13 17 7 9 1020.3 1020.3 7.6
21/01:55am 14.9 12.9 12.6 86 1.3 S 15 20 8 11 1020.4 1020.4 7.6
21/01:30am 15.1 13.8 12.4 84 1.5 SSW 11 15 6 8 1020.5 1020.5 7.6
21/01:00am 15.4 14.1 12.5 83 1.6 SSW 11 15 6 8 1020.7 1020.7 7.6
21/12:30am 15.3 14.0 12.6 84 1.5 SSW 11 17 6 9 1020.6 1020.6 7.6
21/12:00am 15.5 13.1 12.6 83 1.6 SSW 17 22 9 12 1020.8 1020.8 7.6
 
Date/Time
EST
Temp
°C
App
Temp
°C
Dew
Point
°C
Rel
Hum
%
Delta-T
°C
Wind Press
QNH
hPa
Press
MSL
hPa
Rain since
9am
mm
Dir  Spd
km/h
Gust
km/h
Spd
kts
Gust
kts
20/11:30pm 15.0 13.3 12.5 85 1.4 SSW 13 24 7 13 1020.8 1020.8 7.6

Other Formats:

Comma delimited format used in spreadsheet applications
http://www.bom.gov.au/fwo/IDN60801/IDN60801.95748.axf

JavaScript Object Notation format (JSON) in row-major order
http://www.bom.gov.au/fwo/IDN60801/IDN60801.95748.json